sensor_id;sensor_type;location;lat;lon;timestamp;pressure;altitude;pressure_sealevel;temperature;humidity
31771;BME280;18343;50.152;8.182;2023-12-20T00:00:06;97350.09;;;5.24;100.00
31771;BME280;18343;50.152;8.182;2023-12-20T00:03:10;97343.91;;;5.24;100.00
31771;BME280;18343;50.152;8.182;2023-12-20T00:06:13;97349.72;;;5.11;100.00
31771;BME280;18343;50.152;8.182;2023-12-20T00:09:16;97346.09;;;5.28;100.00
31771;BME280;18343;50.152;8.182;2023-12-20T00:12:22;97342.91;;;5.25;100.00
31771;BME280;18343;50.152;8.182;2023-12-20T00:15:26;97343.59;;;5.27;100.00
31771;BME280;18343;50.152;8.182;2023-12-20T00:18:30;97342.28;;;5.31;100.00
31771;BME280;18343;50.152;8.182;2023-12-20T00:21:35;97344.47;;;5.35;100.00
31771;BME280;18343;50.152;8.182;2023-12-20T00:24:38;97337.28;;;5.36;100.00
31771;BME280;18343;50.152;8.182;2023-12-20T00:27:43;97339.59;;;5.31;100.00
31771;BME280;18343;50.152;8.182;2023-12-20T00:30:47;97335.78;;;5.33;100.00
31771;BME280;18343;50.152;8.182;2023-12-20T00:33:50;97330.63;;;5.32;100.00
31771;BME280;18343;50.152;8.182;2023-12-20T00:36:53;97335.59;;;5.27;100.00
31771;BME280;18343;50.152;8.182;2023-12-20T00:39:57;97332.81;;;5.36;100.00
31771;BME280;18343;50.152;8.182;2023-12-20T00:43:03;97335.81;;;5.41;100.00
31771;BME280;18343;50.152;8.182;2023-12-20T00:46:07;97331.16;;;5.43;100.00
31771;BME280;18343;50.152;8.182;2023-12-20T00:49:11;97328.97;;;5.47;100.00
31771;BME280;18343;50.152;8.182;2023-12-20T00:52:16;97328.13;;;5.38;100.00
31771;BME280;18343;50.152;8.182;2023-12-20T00:55:19;97321.47;;;5.34;100.00
31771;BME280;18343;50.152;8.182;2023-12-20T00:58:24;97318.81;;;5.42;100.00
31771;BME280;18343;50.152;8.182;2023-12-20T01:01:28;97314.31;;;5.43;100.00
31771;BME280;18343;50.152;8.182;2023-12-20T01:04:31;97316.66;;;5.46;100.00
31771;BME280;18343;50.152;8.182;2023-12-20T01:07:35;97316.47;;;5.48;100.00
31771;BME280;18343;50.152;8.182;2023-12-20T01:10:38;97317.16;;;5.50;100.00
31771;BME280;18343;50.152;8.182;2023-12-20T01:13:43;97314.47;;;5.50;100.00
31771;BME280;18343;50.152;8.182;2023-12-20T01:16:47;97319.31;;;5.54;100.00
31771;BME280;18343;50.152;8.182;2023-12-20T01:19:50;97314.00;;;5.54;100.00
31771;BME280;18343;50.152;8.182;2023-12-20T01:22:54;97315.31;;;5.50;100.00
31771;BME280;18343;50.152;8.182;2023-12-20T01:25:58;97319.66;;;5.51;100.00
31771;BME280;18343;50.152;8.182;2023-12-20T01:29:03;97320.31;;;5.53;100.00
31771;BME280;18343;50.152;8.182;2023-12-20T01:32:07;97312.66;;;5.50;100.00
31771;BME280;18343;50.152;8.182;2023-12-20T01:35:10;97325.81;;;5.52;100.00
31771;BME280;18343;50.152;8.182;2023-12-20T01:38:14;97324.31;;;5.49;100.00
31771;BME280;18343;50.152;8.182;2023-12-20T01:41:18;97322.84;;;5.55;100.00
31771;BME280;18343;50.152;8.182;2023-12-20T01:44:22;97331.81;;;5.54;100.00
31771;BME280;18343;50.152;8.182;2023-12-20T01:47:26;97347.16;;;5.52;100.00
31771;BME280;18343;50.152;8.182;2023-12-20T01:50:30;97325.97;;;5.50;100.00
31771;BME280;18343;50.152;8.182;2023-12-20T01:53:35;97325.34;;;5.56;100.00
31771;BME280;18343;50.152;8.182;2023-12-20T01:56:39;97321.47;;;5.51;100.00
31771;BME280;18343;50.152;8.182;2023-12-20T01:59:45;97325.34;;;5.56;100.00
31771;BME280;18343;50.152;8.182;2023-12-20T02:02:48;97316.19;;;5.59;100.00
31771;BME280;18343;50.152;8.182;2023-12-20T02:05:54;97304.66;;;5.58;100.00
31771;BME280;18343;50.152;8.182;2023-12-20T02:08:58;97305.34;;;5.60;100.00
31771;BME280;18343;50.152;8.182;2023-12-20T02:12:02;97303.34;;;5.62;100.00
31771;BME280;18343;50.152;8.182;2023-12-20T02:15:07;97303.34;;;5.62;100.00
31771;BME280;18343;50.152;8.182;2023-12-20T02:18:11;97297.84;;;5.64;100.00
31771;BME280;18343;50.152;8.182;2023-12-20T02:21:15;97308.69;;;5.62;100.00
31771;BME280;18343;50.152;8.182;2023-12-20T02:24:20;97302.19;;;5.65;100.00
31771;BME280;18343;50.152;8.182;2023-12-20T02:27:24;97316.69;;;5.62;100.00
31771;BME280;18343;50.152;8.182;2023-12-20T02:30:27;97303.66;;;5.59;100.00
31771;BME280;18343;50.152;8.182;2023-12-20T02:33:31;97304.34;;;5.61;100.00
31771;BME280;18343;50.152;8.182;2023-12-20T02:36:35;97311.19;;;5.64;100.00
31771;BME280;18343;50.152;8.182;2023-12-20T02:39:40;97314.69;;;5.64;100.00
31771;BME280;18343;50.152;8.182;2023-12-20T02:42:43;97313.84;;;5.64;100.00
31771;BME280;18343;50.152;8.182;2023-12-20T02:45:47;97312.03;;;5.64;100.00
31771;BME280;18343;50.152;8.182;2023-12-20T02:48:50;97311.69;;;5.67;100.00
31771;BME280;18343;50.152;8.182;2023-12-20T02:51:55;97312.84;;;5.65;100.00
31771;BME280;18343;50.152;8.182;2023-12-20T02:55:00;97308.03;;;5.68;100.00
31771;BME280;18343;50.152;8.182;2023-12-20T02:58:04;97318.03;;;5.66;100.00
31771;BME280;18343;50.152;8.182;2023-12-20T03:01:07;97326.69;;;5.68;100.00
31771;BME280;18343;50.152;8.182;2023-12-20T03:04:10;97326.00;;;5.74;100.00
31771;BME280;18343;50.152;8.182;2023-12-20T03:07:14;97319.03;;;5.73;100.00
31771;BME280;18343;50.152;8.182;2023-12-20T03:10:19;97330.56;;;5.74;100.00
31771;BME280;18343;50.152;8.182;2023-12-20T03:13:23;97326.69;;;5.76;100.00
31771;BME280;18343;50.152;8.182;2023-12-20T03:16:27;97320.19;;;5.79;100.00
31771;BME280;18343;50.152;8.182;2023-12-20T03:19:30;97332.72;;;5.70;100.00
31771;BME280;18343;50.152;8.182;2023-12-20T03:22:34;97334.38;;;5.71;100.00
31771;BME280;18343;50.152;8.182;2023-12-20T03:25:39;97342.53;;;5.70;100.00
31771;BME280;18343;50.152;8.182;2023-12-20T03:28:43;97348.72;;;5.70;100.00
31771;BME280;18343;50.152;8.182;2023-12-20T03:31:46;97345.22;;;5.70;100.00
31771;BME280;18343;50.152;8.182;2023-12-20T03:34:50;97350.53;;;5.62;100.00
31771;BME280;18343;50.152;8.182;2023-12-20T03:37:53;97348.22;;;5.67;100.00
31771;BME280;18343;50.152;8.182;2023-12-20T03:40:58;97348.19;;;5.75;100.00
31771;BME280;18343;50.152;8.182;2023-12-20T03:44:01;97351.91;;;5.74;100.00
31771;BME280;18343;50.152;8.182;2023-12-20T03:47:05;97361.22;;;5.78;100.00
31771;BME280;18343;50.152;8.182;2023-12-20T03:50:08;97355.38;;;5.74;100.00
31771;BME280;18343;50.152;8.182;2023-12-20T03:53:12;97361.31;;;5.44;100.00
31771;BME280;18343;50.152;8.182;2023-12-20T03:56:17;97358.81;;;5.51;100.00
31771;BME280;18343;50.152;8.182;2023-12-20T03:59:20;97363.84;;;5.62;100.00
31771;BME280;18343;50.152;8.182;2023-12-20T04:02:24;97365.28;;;5.32;100.00
31771;BME280;18343;50.152;8.182;2023-12-20T04:05:27;97364.56;;;5.22;100.00
31771;BME280;18343;50.152;8.182;2023-12-20T04:08:31;97366.53;;;5.12;100.00
31771;BME280;18343;50.152;8.182;2023-12-20T04:11:36;97372.94;;;4.93;100.00
31771;BME280;18343;50.152;8.182;2023-12-20T04:14:40;97381.06;;;5.17;100.00
31771;BME280;18343;50.152;8.182;2023-12-20T04:17:43;97381.44;;;5.30;100.00
31771;BME280;18343;50.152;8.182;2023-12-20T04:20:47;97388.94;;;5.35;100.00
31771;BME280;18343;50.152;8.182;2023-12-20T04:23:50;97394.16;;;5.53;100.00
31771;BME280;18343;50.152;8.182;2023-12-20T04:26:56;97388.03;;;5.60;100.00
31771;BME280;18343;50.152;8.182;2023-12-20T04:29:59;97390.09;;;5.32;100.00
31771;BME280;18343;50.152;8.182;2023-12-20T04:33:03;97392.09;;;4.96;100.00
31771;BME280;18343;50.152;8.182;2023-12-20T04:36:07;97397.16;;;4.73;100.00
31771;BME280;18343;50.152;8.182;2023-12-20T04:39:12;97402.75;;;4.88;100.00
31771;BME280;18343;50.152;8.182;2023-12-20T04:42:17;97402.75;;;4.62;100.00
31771;BME280;18343;50.152;8.182;2023-12-20T04:45:21;97406.00;;;4.30;100.00
31771;BME280;18343;50.152;8.182;2023-12-20T04:48:24;97412.13;;;4.49;100.00
31771;BME280;18343;50.152;8.182;2023-12-20T04:51:28;97413.94;;;4.48;100.00
31771;BME280;18343;50.152;8.182;2023-12-20T04:54:31;97419.50;;;4.55;100.00
31771;BME280;18343;50.152;8.182;2023-12-20T04:57:36;97417.28;;;4.06;100.00
31771;BME280;18343;50.152;8.182;2023-12-20T05:00:39;97423.28;;;4.08;100.00
31771;BME280;18343;50.152;8.182;2023-12-20T05:03:44;97418.34;;;3.96;100.00
31771;BME280;18343;50.152;8.182;2023-12-20T05:06:47;97423.75;;;4.04;100.00
31771;BME280;18343;50.152;8.182;2023-12-20T05:09:51;97418.44;;;4.04;100.00
31771;BME280;18343;50.152;8.182;2023-12-20T05:12:56;97420.41;;;4.02;100.00
31771;BME280;18343;50.152;8.182;2023-12-20T05:15:59;97419.47;;;4.11;100.00
31771;BME280;18343;50.152;8.182;2023-12-20T05:19:03;97421.22;;;4.02;100.00
31771;BME280;18343;50.152;8.182;2023-12-20T05:22:07;97428.13;;;4.13;100.00
31771;BME280;18343;50.152;8.182;2023-12-20T05:25:10;97412.56;;;3.83;100.00
31771;BME280;18343;50.152;8.182;2023-12-20T05:28:15;97417.44;;;4.05;100.00
31771;BME280;18343;50.152;8.182;2023-12-20T05:31:19;97426.53;;;4.20;100.00
31771;BME280;18343;50.152;8.182;2023-12-20T05:34:22;97425.03;;;4.00;100.00
31771;BME280;18343;50.152;8.182;2023-12-20T05:37:26;97425.41;;;4.05;100.00
31771;BME280;18343;50.152;8.182;2023-12-20T05:40:29;97415.91;;;4.20;100.00
31771;BME280;18343;50.152;8.182;2023-12-20T05:43:40;97432.78;;;4.11;100.00
31771;BME280;18343;50.152;8.182;2023-12-20T05:46:43;97427.53;;;4.19;100.00
31771;BME280;18343;50.152;8.182;2023-12-20T05:49:47;97424.44;;;4.06;100.00
31771;BME280;18343;50.152;8.182;2023-12-20T05:52:51;97427.84;;;4.16;100.00
31771;BME280;18343;50.152;8.182;2023-12-20T05:55:54;97435.28;;;4.13;100.00
31771;BME280;18343;50.152;8.182;2023-12-20T05:58:59;97429.59;;;4.07;100.00
31771;BME280;18343;50.152;8.182;2023-12-20T06:02:03;97422.13;;;4.11;100.00
31771;BME280;18343;50.152;8.182;2023-12-20T06:05:07;97418.78;;;3.91;100.00
31771;BME280;18343;50.152;8.182;2023-12-20T06:08:11;97449.81;;;4.00;100.00
31771;BME280;18343;50.152;8.182;2023-12-20T06:11:14;97449.75;;;4.10;100.00
31771;BME280;18343;50.152;8.182;2023-12-20T06:14:19;97434.44;;;4.12;100.00
31771;BME280;18343;50.152;8.182;2023-12-20T06:17:22;97450.50;;;4.02;100.00
31771;BME280;18343;50.152;8.182;2023-12-20T06:20:27;97457.66;;;4.02;100.00
31771;BME280;18343;50.152;8.182;2023-12-20T06:23:30;97459.53;;;3.92;100.00
31771;BME280;18343;50.152;8.182;2023-12-20T06:26:33;97447.31;;;3.81;100.00
31771;BME280;18343;50.152;8.182;2023-12-20T06:29:39;97436.13;;;3.95;100.00
31771;BME280;18343;50.152;8.182;2023-12-20T06:32:42;97439.31;;;3.99;100.00
31771;BME280;18343;50.152;8.182;2023-12-20T06:35:46;97440.84;;;4.01;100.00
31771;BME280;18343;50.152;8.182;2023-12-20T06:38:49;97460.44;;;3.83;100.00
31771;BME280;18343;50.152;8.182;2023-12-20T06:41:53;97460.13;;;3.86;100.00
31771;BME280;18343;50.152;8.182;2023-12-20T06:44:58;97453.38;;;3.91;100.00
31771;BME280;18343;50.152;8.182;2023-12-20T06:48:02;97459.81;;;3.89;100.00
31771;BME280;18343;50.152;8.182;2023-12-20T06:51:25;97456.31;;;3.88;100.00
31771;BME280;18343;50.152;8.182;2023-12-20T06:54:29;97466.81;;;3.90;100.00
31771;BME280;18343;50.152;8.182;2023-12-20T06:57:32;97456.31;;;3.88;100.00
31771;BME280;18343;50.152;8.182;2023-12-20T07:00:37;97468.63;;;3.71;100.00
31771;BME280;18343;50.152;8.182;2023-12-20T07:03:41;97462.19;;;3.74;100.00
31771;BME280;18343;50.152;8.182;2023-12-20T07:06:44;97463.13;;;3.83;100.00
31771;BME280;18343;50.152;8.182;2023-12-20T07:09:48;97463.59;;;3.68;100.00
31771;BME280;18343;50.152;8.182;2023-12-20T07:12:52;97476.31;;;3.74;100.00
31771;BME280;18343;50.152;8.182;2023-12-20T07:15:56;97493.50;;;3.80;100.00
31771;BME280;18343;50.152;8.182;2023-12-20T07:19:01;97492.59;;;3.89;100.00
31771;BME280;18343;50.152;8.182;2023-12-20T07:22:05;97500.81;;;3.96;100.00
31771;BME280;18343;50.152;8.182;2023-12-20T07:25:09;97479.38;;;3.97;100.00
31771;BME280;18343;50.152;8.182;2023-12-20T07:28:13;97487.41;;;3.88;100.00
31771;BME280;18343;50.152;8.182;2023-12-20T07:31:18;97492.25;;;4.02;100.00
31771;BME280;18343;50.152;8.182;2023-12-20T07:34:22;97490.19;;;4.14;100.00
31771;BME280;18343;50.152;8.182;2023-12-20T07:37:25;97487.00;;;4.10;100.00
31771;BME280;18343;50.152;8.182;2023-12-20T07:40:29;97488.00;;;4.09;100.00
31771;BME280;18343;50.152;8.182;2023-12-20T07:43:34;97504.31;;;4.14;100.00
31771;BME280;18343;50.152;8.182;2023-12-20T07:46:39;97512.78;;;4.27;100.00
31771;BME280;18343;50.152;8.182;2023-12-20T07:49:42;97514.22;;;4.22;100.00
31771;BME280;18343;50.152;8.182;2023-12-20T07:52:49;97520.69;;;4.19;100.00
31771;BME280;18343;50.152;8.182;2023-12-20T07:55:52;97516.66;;;4.33;100.00
31771;BME280;18343;50.152;8.182;2023-12-20T07:58:56;97517.28;;;4.27;100.00
31771;BME280;18343;50.152;8.182;2023-12-20T08:02:01;97506.31;;;4.30;100.00
31771;BME280;18343;50.152;8.182;2023-12-20T08:05:05;97505.34;;;4.31;100.00
31771;BME280;18343;50.152;8.182;2023-12-20T08:08:08;97511.03;;;4.18;100.00
31771;BME280;18343;50.152;8.182;2023-12-20T08:11:12;97510.81;;;4.29;100.00
31771;BME280;18343;50.152;8.182;2023-12-20T08:14:19;97525.00;;;4.20;100.00
31771;BME280;18343;50.152;8.182;2023-12-20T08:17:24;97521.31;;;4.31;100.00
31771;BME280;18343;50.152;8.182;2023-12-20T08:20:28;97522.53;;;4.36;100.00
31771;BME280;18343;50.152;8.182;2023-12-20T08:23:33;97515.88;;;4.40;100.00
31771;BME280;18343;50.152;8.182;2023-12-20T08:26:36;97523.56;;;4.43;100.00
31771;BME280;18343;50.152;8.182;2023-12-20T08:29:39;97516.97;;;4.48;100.00
31771;BME280;18343;50.152;8.182;2023-12-20T08:32:44;97529.34;;;4.39;100.00
31771;BME280;18343;50.152;8.182;2023-12-20T08:35:49;97524.03;;;4.57;100.00
31771;BME280;18343;50.152;8.182;2023-12-20T08:38:52;97527.47;;;4.49;100.00
31771;BME280;18343;50.152;8.182;2023-12-20T08:41:56;97529.13;;;4.50;100.00
31771;BME280;18343;50.152;8.182;2023-12-20T08:45:00;97528.38;;;4.58;100.00
31771;BME280;18343;50.152;8.182;2023-12-20T08:48:06;97529.22;;;4.58;100.00
31771;BME280;18343;50.152;8.182;2023-12-20T08:51:11;97535.38;;;4.59;100.00
31771;BME280;18343;50.152;8.182;2023-12-20T08:54:14;97530.06;;;4.59;100.00
31771;BME280;18343;50.152;8.182;2023-12-20T08:57:19;97532.91;;;4.65;100.00
31771;BME280;18343;50.152;8.182;2023-12-20T09:00:23;97539.78;;;4.68;100.00
31771;BME280;18343;50.152;8.182;2023-12-20T09:03:28;97533.69;;;4.75;100.00
31771;BME280;18343;50.152;8.182;2023-12-20T09:06:31;97533.16;;;4.72;100.00
31771;BME280;18343;50.152;8.182;2023-12-20T09:09:35;97531.00;;;4.75;100.00
31771;BME280;18343;50.152;8.182;2023-12-20T09:12:39;97525.38;;;4.79;100.00
31771;BME280;18343;50.152;8.182;2023-12-20T09:15:42;97519.53;;;4.75;100.00
31771;BME280;18343;50.152;8.182;2023-12-20T09:18:47;97524.41;;;4.80;100.00
31771;BME280;18343;50.152;8.182;2023-12-20T09:21:50;97520.13;;;4.87;100.00
31771;BME280;18343;50.152;8.182;2023-12-20T09:24:54;97512.66;;;4.90;100.00
31771;BME280;18343;50.152;8.182;2023-12-20T09:27:59;97518.09;;;5.06;100.00
31771;BME280;18343;50.152;8.182;2023-12-20T09:31:04;97517.78;;;5.09;100.00
31771;BME280;18343;50.152;8.182;2023-12-20T09:34:09;97522.81;;;5.13;100.00
31771;BME280;18343;50.152;8.182;2023-12-20T09:37:13;97527.97;;;5.14;100.00
31771;BME280;18343;50.152;8.182;2023-12-20T09:40:19;97533.50;;;5.21;100.00
31771;BME280;18343;50.152;8.182;2023-12-20T09:43:24;97536.00;;;5.22;100.00
31771;BME280;18343;50.152;8.182;2023-12-20T09:46:29;97541.56;;;5.29;100.00
31771;BME280;18343;50.152;8.182;2023-12-20T09:49:39;97543.22;;;5.30;100.00
31771;BME280;18343;50.152;8.182;2023-12-20T09:52:44;97536.75;;;5.32;100.00
31771;BME280;18343;50.152;8.182;2023-12-20T09:55:48;97543.22;;;5.30;100.00
31771;BME280;18343;50.152;8.182;2023-12-20T09:58:52;97543.34;;;5.46;100.00
31771;BME280;18343;50.152;8.182;2023-12-20T10:01:57;97552.00;;;5.48;100.00
31771;BME280;18343;50.152;8.182;2023-12-20T10:05:03;97559.34;;;5.46;100.00
31771;BME280;18343;50.152;8.182;2023-12-20T10:08:09;97556.00;;;5.44;100.00
31771;BME280;18343;50.152;8.182;2023-12-20T10:11:12;97552.19;;;5.47;100.00
31771;BME280;18343;50.152;8.182;2023-12-20T10:14:16;97539.31;;;5.42;100.00
31771;BME280;18343;50.152;8.182;2023-12-20T10:17:22;97538.56;;;5.58;100.00
31771;BME280;18343;50.152;8.182;2023-12-20T10:20:26;97536.88;;;5.57;100.00
31771;BME280;18343;50.152;8.182;2023-12-20T10:23:32;97519.38;;;5.54;100.00
31771;BME280;18343;50.152;8.182;2023-12-20T10:26:36;97519.16;;;5.48;100.00
31771;BME280;18343;50.152;8.182;2023-12-20T10:29:39;97511.72;;;5.59;100.00
31771;BME280;18343;50.152;8.182;2023-12-20T10:32:43;97507.22;;;5.60;100.00
31771;BME280;18343;50.152;8.182;2023-12-20T10:35:47;97496.13;;;5.72;100.00
31771;BME280;18343;50.152;8.182;2023-12-20T10:38:52;97499.28;;;5.68;100.00
31771;BME280;18343;50.152;8.182;2023-12-20T10:41:56;97491.78;;;5.71;100.00
31771;BME280;18343;50.152;8.182;2023-12-20T10:45:00;97497.75;;;5.65;100.00
31771;BME280;18343;50.152;8.182;2023-12-20T10:48:04;97487.94;;;5.66;100.00
31771;BME280;18343;50.152;8.182;2023-12-20T10:51:11;97489.59;;;5.75;100.00
31771;BME280;18343;50.152;8.182;2023-12-20T10:54:14;97488.50;;;5.86;100.00
31771;BME280;18343;50.152;8.182;2023-12-20T10:57:18;97483.63;;;5.81;100.00
31771;BME280;18343;50.152;8.182;2023-12-20T11:00:23;97478.88;;;5.93;100.00
31771;BME280;18343;50.152;8.182;2023-12-20T11:03:27;97480.75;;;6.00;100.00
31771;BME280;18343;50.152;8.182;2023-12-20T11:06:46;97486.03;;;5.92;100.00
31771;BME280;18343;50.152;8.182;2023-12-20T11:09:59;97478.91;;;6.01;100.00
31771;BME280;18343;50.152;8.182;2023-12-20T11:13:10;97487.41;;;5.96;100.00
31771;BME280;18343;50.152;8.182;2023-12-20T11:16:15;97485.75;;;6.11;100.00
31771;BME280;18343;50.152;8.182;2023-12-20T11:19:19;97476.88;;;6.03;100.00
31771;BME280;18343;50.152;8.182;2023-12-20T11:22:25;97472.72;;;6.08;100.00
31771;BME280;18343;50.152;8.182;2023-12-20T11:25:28;97473.47;;;5.85;100.00
31771;BME280;18343;50.152;8.182;2023-12-20T11:28:35;97473.13;;;5.79;100.00
31771;BME280;18343;50.152;8.182;2023-12-20T11:31:40;97468.63;;;5.80;100.00
31771;BME280;18343;50.152;8.182;2023-12-20T11:34:46;97463.56;;;5.61;100.00
31771;BME280;18343;50.152;8.182;2023-12-20T11:37:51;97468.25;;;5.75;100.00
31771;BME280;18343;50.152;8.182;2023-12-20T11:40:55;97470.41;;;5.63;100.00
31771;BME280;18343;50.152;8.182;2023-12-20T11:43:58;97467.78;;;5.71;100.00
31771;BME280;18343;50.152;8.182;2023-12-20T11:47:02;97467.94;;;5.70;100.00
31771;BME280;18343;50.152;8.182;2023-12-20T11:50:07;97461.59;;;5.71;100.00
31771;BME280;18343;50.152;8.182;2023-12-20T11:53:12;97466.78;;;5.72;100.00
31771;BME280;18343;50.152;8.182;2023-12-20T11:56:15;97437.00;;;5.93;100.00
31771;BME280;18343;50.152;8.182;2023-12-20T11:59:19;97455.19;;;5.90;100.00
31771;BME280;18343;50.152;8.182;2023-12-20T12:02:22;97451.50;;;5.91;100.00
31771;BME280;18343;50.152;8.182;2023-12-20T12:05:26;97438.09;;;5.83;100.00
31771;BME280;18343;50.152;8.182;2023-12-20T12:08:31;97430.50;;;6.04;100.00
31771;BME280;18343;50.152;8.182;2023-12-20T12:11:35;97439.03;;;6.07;100.00
31771;BME280;18343;50.152;8.182;2023-12-20T12:14:38;97443.41;;;6.25;100.00
31771;BME280;18343;50.152;8.182;2023-12-20T12:17:42;97445.06;;;6.26;100.00
31771;BME280;18343;50.152;8.182;2023-12-20T12:20:46;97444.41;;;6.48;100.00
31771;BME280;18343;50.152;8.182;2023-12-20T12:23:51;97438.88;;;6.33;100.00
31771;BME280;18343;50.152;8.182;2023-12-20T12:26:57;97434.53;;;6.32;100.00
31771;BME280;18343;50.152;8.182;2023-12-20T12:30:02;97434.53;;;6.16;100.00
31771;BME280;18343;50.152;8.182;2023-12-20T12:33:12;97438.38;;;6.30;100.00
31771;BME280;18343;50.152;8.182;2023-12-20T12:36:16;97423.03;;;6.40;100.00
31771;BME280;18343;50.152;8.182;2023-12-20T12:39:21;97434.56;;;6.24;100.00
31771;BME280;18343;50.152;8.182;2023-12-20T12:42:26;97399.66;;;6.18;100.00
31771;BME280;18343;50.152;8.182;2023-12-20T12:45:30;97406.16;;;6.15;100.00
31771;BME280;18343;50.152;8.182;2023-12-20T12:48:34;97397.81;;;6.10;100.00
31771;BME280;18343;50.152;8.182;2023-12-20T12:51:38;97400.50;;;6.26;100.00
31771;BME280;18343;50.152;8.182;2023-12-20T12:54:43;97396.31;;;6.48;100.00
31771;BME280;18343;50.152;8.182;2023-12-20T12:57:47;97397.16;;;6.16;100.00
31771;BME280;18343;50.152;8.182;2023-12-20T13:00:50;97397.34;;;6.23;100.00
31771;BME280;18343;50.152;8.182;2023-12-20T13:03:54;97383.78;;;6.32;100.00
31771;BME280;18343;50.152;8.182;2023-12-20T13:06:58;97366.13;;;6.23;100.00
31771;BME280;18343;50.152;8.182;2023-12-20T13:10:04;97368.13;;;6.45;100.00
31771;BME280;18343;50.152;8.182;2023-12-20T13:13:07;97366.94;;;6.48;100.00
31771;BME280;18343;50.152;8.182;2023-12-20T13:16:17;97367.63;;;6.50;100.00
31771;BME280;18343;50.152;8.182;2023-12-20T13:19:21;97360.25;;;6.52;100.00
31771;BME280;18343;50.152;8.182;2023-12-20T13:22:24;97356.09;;;6.41;100.00
31771;BME280;18343;50.152;8.182;2023-12-20T13:25:30;97349.78;;;6.26;100.00
31771;BME280;18343;50.152;8.182;2023-12-20T13:28:35;97337.41;;;6.33;100.00
31771;BME280;18343;50.152;8.182;2023-12-20T13:31:39;97337.44;;;6.25;100.00
31771;BME280;18343;50.152;8.182;2023-12-20T13:34:42;97334.91;;;6.40;100.00
31771;BME280;18343;50.152;8.182;2023-12-20T13:37:55;97328.22;;;6.44;100.00
31771;BME280;18343;50.152;8.182;2023-12-20T13:41:00;97342.56;;;6.43;100.00
31771;BME280;18343;50.152;8.182;2023-12-20T13:44:03;97331.88;;;6.51;100.00
31771;BME280;18343;50.152;8.182;2023-12-20T13:47:07;97338.72;;;6.37;100.00
31771;BME280;18343;50.152;8.182;2023-12-20T13:50:11;97342.25;;;6.22;100.00
31771;BME280;18343;50.152;8.182;2023-12-20T13:53:19;97341.56;;;6.03;100.00
31771;BME280;18343;50.152;8.182;2023-12-20T13:56:23;97331.75;;;5.96;100.00
31771;BME280;18343;50.152;8.182;2023-12-20T13:59:27;97344.75;;;6.07;100.00
31771;BME280;18343;50.152;8.182;2023-12-20T14:02:30;97342.25;;;6.14;100.00
31771;BME280;18343;50.152;8.182;2023-12-20T14:05:34;97333.25;;;6.06;100.00
31771;BME280;18343;50.152;8.182;2023-12-20T14:08:38;97328.25;;;5.95;100.00
31771;BME280;18343;50.152;8.182;2023-12-20T14:11:45;97321.75;;;5.98;100.00
31771;BME280;18343;50.152;8.182;2023-12-20T14:14:48;97325.91;;;5.92;100.00
31771;BME280;18343;50.152;8.182;2023-12-20T14:17:52;97313.34;;;5.85;100.00
31771;BME280;18343;50.152;8.182;2023-12-20T14:20:56;97318.09;;;5.99;100.00
31771;BME280;18343;50.152;8.182;2023-12-20T14:23:59;97311.38;;;6.11;100.00
31771;BME280;18343;50.152;8.182;2023-12-20T14:27:05;97303.91;;;5.98;100.00
31771;BME280;18343;50.152;8.182;2023-12-20T14:30:09;97312.56;;;6.00;100.00
31771;BME280;18343;50.152;8.182;2023-12-20T14:33:13;97325.06;;;6.08;100.00
31771;BME280;18343;50.152;8.182;2023-12-20T14:36:17;97326.25;;;5.97;100.00
31771;BME280;18343;50.152;8.182;2023-12-20T14:39:20;97320.38;;;6.02;100.00
31771;BME280;18343;50.152;8.182;2023-12-20T14:42:25;97311.03;;;5.73;100.00
31771;BME280;18343;50.152;8.182;2023-12-20T14:45:29;97299.91;;;5.94;100.00
31771;BME280;18343;50.152;8.182;2023-12-20T14:48:33;97298.88;;;6.03;100.00
31771;BME280;18343;50.152;8.182;2023-12-20T14:51:36;97312.72;;;5.91;100.00
31771;BME280;18343;50.152;8.182;2023-12-20T14:54:39;97317.88;;;5.84;100.00
31771;BME280;18343;50.152;8.182;2023-12-20T14:57:44;97311.84;;;5.66;100.00
31771;BME280;18343;50.152;8.182;2023-12-20T15:00:48;97316.19;;;5.59;100.00
31771;BME280;18343;50.152;8.182;2023-12-20T15:03:57;97305.34;;;5.60;100.00
31771;BME280;18343;50.152;8.182;2023-12-20T15:07:00;97316.00;;;5.60;100.00
31771;BME280;18343;50.152;8.182;2023-12-20T15:10:05;97308.69;;;5.78;100.00
31771;BME280;18343;50.152;8.182;2023-12-20T15:13:10;97304.00;;;5.81;100.00
31771;BME280;18343;50.152;8.182;2023-12-20T15:16:14;97303.34;;;5.78;100.00
31771;BME280;18343;50.152;8.182;2023-12-20T15:19:17;97303.03;;;5.65;100.00
31771;BME280;18343;50.152;8.182;2023-12-20T15:22:21;97314.81;;;5.55;100.00
31771;BME280;18343;50.152;8.182;2023-12-20T15:25:25;97315.34;;;5.66;100.00
31771;BME280;18343;50.152;8.182;2023-12-20T15:28:31;97314.69;;;5.81;100.00
31771;BME280;18343;50.152;8.182;2023-12-20T15:31:34;97315.53;;;5.73;100.00
31771;BME280;18343;50.152;8.182;2023-12-20T15:34:38;97311.34;;;5.62;100.00
31771;BME280;18343;50.152;8.182;2023-12-20T15:37:42;97310.84;;;5.67;100.00
31771;BME280;18343;50.152;8.182;2023-12-20T15:40:45;97312.03;;;5.64;100.00
31771;BME280;18343;50.152;8.182;2023-12-20T15:43:50;97305.19;;;5.62;100.00
31771;BME280;18343;50.152;8.182;2023-12-20T15:46:55;97305.03;;;5.71;100.00
31771;BME280;18343;50.152;8.182;2023-12-20T15:49:59;97296.34;;;5.69;100.00
31771;BME280;18343;50.152;8.182;2023-12-20T15:53:02;97302.50;;;5.62;100.00
31771;BME280;18343;50.152;8.182;2023-12-20T15:56:07;97307.69;;;5.71;100.00
31771;BME280;18343;50.152;8.182;2023-12-20T15:59:12;97299.69;;;5.79;100.00
31771;BME280;18343;50.152;8.182;2023-12-20T16:02:16;97299.84;;;5.62;100.00
31771;BME280;18343;50.152;8.182;2023-12-20T16:05:19;97298.31;;;5.51;100.00
31771;BME280;18343;50.152;8.182;2023-12-20T16:08:23;97289.69;;;5.73;100.00
31771;BME280;18343;50.152;8.182;2023-12-20T16:11:26;97291.00;;;5.77;100.00
31771;BME280;18343;50.152;8.182;2023-12-20T16:14:31;97296.34;;;5.77;100.00